Ana Sayfa
METAR-TAF:

METAR-TAF

Havaalanları :

Hanoi, Vietnam

Enlem: 21-01N, Boylam: 105-48E, yükseklik: 6 m

Güncel hava durumu gözlemi

Rapor saat 22:00 UTC de 17 dakika önce yapıldı.
Rüzgar kuzeydoğudan 3 kt, kuzey/kuzeydoğu ve doğu arasında değişken
Sıcaklık 25°C
Nem 100%
Basınç 1011 hPa
Görüş mesafesi: 5000 m
Pus

METAR: VVNB 202200Z 04003KT 020V090 5000 BR NSC 25/25 Q1011 NOSIG

Saat: 05:17 (22:17 UTC)

Tahmin

Rapor saat 17:00 UTC de 5 saat ve 17 dakika önce yapıldı.
Ayın 20'si saat 18 UTC'den ayın 21'si saat 18 UTC'ye kadar geçerli Tahmin
Rüzgar doğu/güneydoğudan 6 kt
Görüş mesafesi: 6000 m
2500 ft yükseklikte az bulutlu
Dönüşüyor
ayın 20'si saat 21 UTC'den ayın 20'si saat 23 UTC'ye kadar
Görüş mesafesi: 3500 m
Pus
Dönüşüyor
ayın 21'si saat 01 UTC'den ayın 21'si saat 03 UTC'ye kadar
Rüzgar kuzeydoğudan 8 kt
Görüş mesafesi: 6000 m

TAF: VVNB 201700Z 2018/2118 11006KT 6000 FEW025 BECMG 2021/2023 3500 BR BECMG 2101/2103 04008KT 6000 NSW

4.000'den fazla havaalanı için hava durumu gözlemleri ve tahminleri (METAR ve TAF raporları).

Kullanılabilir istasyonlar harita üzerinde sarı ve kırmızı noktalarla gösterilir.

İstasyonun adını görmek için fareyi noktanın üzerinde gezdirin.

Sonrasında hava gözlem ve tahminlerini görmek için tıklayın.

Haritayı değiştirmek için: yaklaştırmak için siyah artı işaretli yeşil düğmeye ve uzaklaştırmak için de eksi işaretli düğmeye hızla tıklayın; bitişik haritalar için yeşil okları kullanın.


METAR-TAF: